Time;durP1;ratioP1;P1;durP2;ratioP2;P2;SDS_P1;SDS_P2;PMS_P1;PMS_P2;Temp;Humidity;BMP_temperature;BMP_pressure;BME280_temperature;BME280_humidity;BME280_pressure;Samples;Min_cycle;Max_cycle;Signal;HPM_P1;HPM_P2
2022/03/05 00:01:16;;;;;;;0.98;0.57;;;20.40;35.20;;;;;;5116076;28;20069;-78
2022/03/05 00:03:42;;;;;;;0.68;0.60;;;20.40;35.20;;;;;;5115068;28;20044;-78
2022/03/05 00:06:07;;;;;;;0.90;0.80;;;20.50;35.20;;;;;;5116062;28;20100;-78
2022/03/05 00:08:33;;;;;;;0.50;0.50;;;20.40;35.20;;;;;;5116037;28;20055;-78
2022/03/05 00:10:58;;;;;;;0.50;0.50;;;20.50;35.20;;;;;;5116155;28;20399;-78
2022/03/05 00:13:24;;;;;;;0.60;0.60;;;20.50;35.30;;;;;;5097487;28;21245;-78
2022/03/05 00:15:51;;;;;;;0.60;0.57;;;20.40;35.20;;;;;;5116164;28;20067;-78
2022/03/05 00:18:16;;;;;;;0.50;0.50;;;20.40;35.20;;;;;;5115715;28;20522;-78
2022/03/05 00:20:44;;;;;;;0.50;0.50;;;20.40;35.20;;;;;;5115810;28;20069;-78
2022/03/05 00:23:12;;;;;;;0.50;0.50;;;20.40;35.20;;;;;;5115833;28;20087;-78
2022/03/05 00:25:38;;;;;;;0.95;0.50;;;20.40;35.20;;;;;;5115657;28;20062;-78
2022/03/05 00:28:03;;;;;;;0.60;0.60;;;20.40;35.20;;;;;;5116038;28;20047;-78
2022/03/05 00:30:29;;;;;;;0.77;0.77;;;20.50;35.30;;;;;;5115566;28;20067;-78
2022/03/05 00:32:54;;;;;;;0.50;0.50;;;20.40;35.20;;;;;;5097502;28;20047;-78
2022/03/05 00:35:20;;;;;;;0.50;0.50;;;20.40;35.70;;;;;;5115913;28;20058;-78
2022/03/05 00:37:46;;;;;;;0.45;0.45;;;20.50;35.30;;;;;;5115496;28;20079;-78
2022/03/05 00:40:12;;;;;;;0.95;0.68;;;20.40;35.20;;;;;;5115487;28;20056;-78
2022/03/05 00:42:37;;;;;;;0.68;0.68;;;20.40;35.20;;;;;;5097078;28;20403;-78
2022/03/05 00:45:05;;;;;;;0.70;0.70;;;20.50;35.20;;;;;;5115389;28;20043;-78
2022/03/05 00:47:31;;;;;;;0.55;0.55;;;20.40;35.20;;;;;;5115343;28;20419;-78
2022/03/05 00:49:57;;;;;;;0.75;0.60;;;20.50;35.20;;;;;;5097501;28;20062;-78
2022/03/05 00:52:22;;;;;;;0.70;0.70;;;20.40;35.20;;;;;;5114619;28;20048;-78
2022/03/05 00:54:48;;;;;;;1.60;0.70;;;20.40;35.20;;;;;;5115317;28;20047;-78
2022/03/05 00:57:15;;;;;;;0.65;0.65;;;20.40;35.20;;;;;;5096370;28;20058;-78
2022/03/05 00:59:40;;;;;;;0.43;0.43;;;20.50;35.20;;;;;;5115182;28;20048;-78
2022/03/05 01:02:06;;;;;;;0.80;0.50;;;20.40;35.20;;;;;;5115171;28;20058;-78
2022/03/05 01:04:33;;;;;;;0.68;0.63;;;20.50;35.20;;;;;;5115369;28;20047;-78
2022/03/05 01:07:00;;;;;;;0.63;0.63;;;20.40;35.10;;;;;;5113688;28;20047;-79
2022/03/05 01:09:26;;;;;;;0.65;0.65;;;20.40;35.20;;;;;;5115036;28;20047;-78
2022/03/05 01:11:51;;;;;;;0.85;0.63;;;20.40;35.20;;;;;;5114819;28;20384;-78
2022/03/05 01:14:17;;;;;;;0.93;0.60;;;20.50;35.20;;;;;;5115122;28;20071;-78
2022/03/05 01:16:43;;;;;;;0.73;0.70;;;20.40;35.20;;;;;;5094989;28;20407;-78
2022/03/05 01:19:08;;;;;;;0.60;0.60;;;20.40;35.20;;;;;;5114395;28;20117;-78
2022/03/05 01:21:34;;;;;;;0.60;0.60;;;20.50;35.20;;;;;;5095443;28;20491;-78
2022/03/05 01:24:00;;;;;;;0.65;0.65;;;20.50;35.20;;;;;;5095340;28;20135;-78
2022/03/05 01:26:29;;;;;;;0.60;0.60;;;20.50;35.20;;;;;;5114783;28;20453;-78
2022/03/05 01:28:55;;;;;;;0.60;0.60;;;20.50;35.20;;;;;;5114739;28;20487;-78
2022/03/05 01:31:21;;;;;;;0.63;0.63;;;20.40;35.10;;;;;;5114749;28;20138;-78
2022/03/05 01:33:46;;;;;;;0.60;0.60;;;20.50;35.20;;;;;;5114587;28;20060;-78
2022/03/05 01:36:12;;;;;;;0.93;0.75;;;20.40;35.20;;;;;;5114609;28;20051;-78
2022/03/05 01:38:37;;;;;;;0.60;0.60;;;20.40;35.20;;;;;;5114641;28;20043;-78
2022/03/05 01:41:03;;;;;;;0.40;0.40;;;20.40;35.20;;;;;;5114529;28;20054;-78
2022/03/05 01:43:28;;;;;;;0.60;0.60;;;20.50;35.20;;;;;;5114560;28;20052;-78
2022/03/05 01:45:54;;;;;;;0.50;0.50;;;20.40;35.20;;;;;;5114765;28;20177;-78
2022/03/05 01:48:20;;;;;;;0.45;0.45;;;20.40;35.20;;;;;;5114551;28;20085;-78
2022/03/05 01:50:47;;;;;;;0.50;0.50;;;20.40;35.20;;;;;;5114525;28;20104;-78
2022/03/05 01:53:13;;;;;;;0.85;0.65;;;20.50;35.20;;;;;;5114402;28;20047;-78
2022/03/05 01:55:39;;;;;;;0.55;0.55;;;20.40;35.20;;;;;;5114391;28;20047;-78
2022/03/05 01:58:05;;;;;;;1.05;0.57;;;20.40;35.20;;;;;;5114571;28;20138;-78
2022/03/05 02:00:30;;;;;;;0.70;0.68;;;20.40;35.20;;;;;;5114168;28;20150;-78
2022/03/05 02:02:56;;;;;;;0.73;0.63;;;20.50;35.20;;;;;;5114493;28;20054;-78
2022/03/05 02:05:23;;;;;;;0.50;0.50;;;20.40;35.10;;;;;;5113536;28;20072;-78
2022/03/05 02:07:49;;;;;;;1.10;0.70;;;20.50;35.20;;;;;;5110221;28;20404;-78
2022/03/05 02:10:15;;;;;;;0.77;0.70;;;20.40;35.10;;;;;;5113898;28;20049;-78
2022/03/05 02:12:41;;;;;;;0.65;0.60;;;20.40;35.20;;;;;;5114006;28;20092;-78
2022/03/05 02:15:08;;;;;;;0.52;0.52;;;20.40;35.70;;;;;;5113946;28;20428;-78
2022/03/05 02:17:34;;;;;;;0.50;0.47;;;20.40;35.10;;;;;;5113918;28;20050;-78
2022/03/05 02:20:00;;;;;;;0.43;0.43;;;20.50;35.20;;;;;;5113754;28;20134;-78
2022/03/05 02:22:26;;;;;;;0.60;0.60;;;20.40;35.10;;;;;;5113919;28;20097;-78
2022/03/05 02:24:55;;;;;;;0.88;0.70;;;20.40;35.20;;;;;;5113893;28;20052;-78
2022/03/05 02:27:25;;;;;;;0.50;0.50;;;20.40;35.10;;;;;;5093695;28;20043;-78
2022/03/05 02:29:51;;;;;;;0.50;0.50;;;20.40;35.10;;;;;;5113622;28;20130;-78
2022/03/05 02:32:17;;;;;;;0.70;0.70;;;20.40;35.20;;;;;;5113723;28;20134;-78
2022/03/05 02:34:43;;;;;;;0.52;0.50;;;20.40;35.20;;;;;;5095345;28;20570;-78
2022/03/05 02:37:10;;;;;;;0.60;0.60;;;20.40;35.20;;;;;;5095558;28;20128;-78
2022/03/05 02:39:38;;;;;;;0.63;0.63;;;20.40;35.20;;;;;;5113550;28;20039;-78
2022/03/05 02:42:05;;;;;;;0.50;0.50;;;20.40;35.20;;;;;;5112370;28;20086;-78
2022/03/05 02:44:32;;;;;;;0.57;0.57;;;20.40;35.30;;;;;;5113852;28;20055;-78
2022/03/05 02:46:59;;;;;;;0.60;0.60;;;20.40;35.10;;;;;;5113420;28;20054;-78
2022/03/05 02:49:25;;;;;;;0.60;0.60;;;20.40;35.20;;;;;;5113503;28;20058;-78
2022/03/05 02:51:51;;;;;;;0.60;0.55;;;20.40;35.20;;;;;;5113245;28;20057;-78
2022/03/05 02:54:17;;;;;;;0.80;0.80;;;20.40;35.20;;;;;;5094105;28;20142;-78
2022/03/05 02:56:42;;;;;;;0.75;0.68;;;20.40;35.20;;;;;;5113304;28;20051;-78
2022/03/05 02:59:08;;;;;;;1.05;0.80;;;20.40;35.20;;;;;;5094822;28;20462;-78
2022/03/05 03:01:33;;;;;;;0.50;0.50;;;20.40;35.20;;;;;;5111127;28;20060;-78
2022/03/05 03:03:59;;;;;;;0.60;0.60;;;20.40;35.20;;;;;;5113323;28;20060;-78
2022/03/05 03:06:25;;;;;;;0.98;0.70;;;20.40;35.20;;;;;;5113543;28;20048;-78
2022/03/05 03:08:51;;;;;;;0.73;0.60;;;20.40;35.20;;;;;;5093919;28;20480;-78
2022/03/05 03:11:16;;;;;;;0.65;0.60;;;20.40;35.20;;;;;;5113135;28;20048;-77
2022/03/05 03:13:42;;;;;;;0.70;0.70;;;20.40;35.20;;;;;;5094915;28;20095;-78
2022/03/05 03:16:09;;;;;;;0.50;0.47;;;20.40;35.20;;;;;;5113074;28;20067;-78
2022/03/05 03:18:35;;;;;;;0.70;0.70;;;20.40;35.20;;;;;;5113326;28;20051;-78
2022/03/05 03:21:01;;;;;;;0.82;0.70;;;20.40;35.20;;;;;;5112712;28;20050;-78
2022/03/05 03:23:26;;;;;;;0.88;0.70;;;20.40;35.20;;;;;;5112933;28;20051;-78
2022/03/05 03:25:52;;;;;;;0.50;0.50;;;20.40;35.20;;;;;;5112978;28;20052;-78
2022/03/05 03:28:21;;;;;;;0.90;0.77;;;20.40;35.20;;;;;;5112835;28;20047;-77
2022/03/05 03:30:47;;;;;;;0.60;0.60;;;20.40;35.20;;;;;;5112926;28;20055;-78
2022/03/05 03:33:12;;;;;;;0.55;0.55;;;20.40;35.20;;;;;;5077702;28;20079;-78
2022/03/05 03:35:38;;;;;;;0.57;0.57;;;20.40;35.20;;;;;;5112864;28;20063;-78
2022/03/05 03:38:04;;;;;;;0.60;0.60;;;20.40;35.20;;;;;;5112661;28;20058;-78
2022/03/05 03:40:30;;;;;;;0.60;0.60;;;20.40;35.20;;;;;;5113050;28;20104;-78
2022/03/05 03:42:55;;;;;;;0.90;0.70;;;20.40;35.10;;;;;;5111441;28;20047;-78
2022/03/05 03:45:21;;;;;;;0.60;0.60;;;20.40;35.20;;;;;;5112844;28;20047;-78
2022/03/05 03:47:50;;;;;;;0.70;0.70;;;20.50;35.20;;;;;;5112601;28;20052;-77
2022/03/05 03:50:18;;;;;;;0.60;0.60;;;20.40;35.10;;;;;;5112798;28;20192;-78
2022/03/05 03:52:44;;;;;;;0.75;0.60;;;20.40;35.10;;;;;;5112703;28;20048;-78
2022/03/05 03:55:11;;;;;;;0.77;0.70;;;20.50;35.10;;;;;;5112661;28;20058;-78
2022/03/05 03:57:38;;;;;;;1.58;0.68;;;20.40;35.10;;;;;;5112948;28;20054;-78
2022/03/05 04:00:06;;;;;;;0.60;0.60;;;20.40;35.10;;;;;;5112714;28;20059;-78
2022/03/05 04:02:37;;;;;;;0.50;0.50;;;20.40;35.10;;;;;;5112635;28;20142;-78
2022/03/05 04:05:04;;;;;;;0.50;0.50;;;20.50;35.20;;;;;;5112397;28;20503;-78
2022/03/05 04:10:14;;;;;;;0.70;0.70;;;20.40;35.10;;;;;;5112541;28;20109;-78
2022/03/05 04:12:39;;;;;;;0.70;0.52;;;20.50;35.10;;;;;;5094636;28;20047;-78
2022/03/05 04:15:06;;;;;;;0.60;0.60;;;20.50;35.10;;;;;;5112650;28;20054;-78
2022/03/05 04:17:32;;;;;;;0.50;0.50;;;20.50;35.10;;;;;;5111060;28;20496;-78
2022/03/05 04:19:58;;;;;;;0.50;0.50;;;20.50;35.10;;;;;;5112217;28;20051;-78
2022/03/05 04:22:24;;;;;;;0.60;0.60;;;20.50;35.10;;;;;;5112391;28;20130;-78
2022/03/05 04:24:50;;;;;;;0.57;0.52;;;20.50;35.10;;;;;;5112121;28;20130;-78
2022/03/05 04:27:15;;;;;;;0.52;0.52;;;20.50;35.00;;;;;;5112224;28;20101;-78
2022/03/05 04:29:42;;;;;;;0.57;0.57;;;20.60;35.10;;;;;;5112155;28;20501;-78
2022/03/05 04:32:08;;;;;;;0.65;0.65;;;20.50;35.00;;;;;;5112582;28;20048;-78
2022/03/05 04:34:34;;;;;;;0.50;0.50;;;20.50;35.00;;;;;;5115580;28;20490;-78
2022/03/05 04:36:59;;;;;;;0.60;0.60;;;20.60;35.10;;;;;;5115608;28;20092;-78
2022/03/05 04:39:25;;;;;;;0.50;0.50;;;20.60;35.00;;;;;;5115460;28;20105;-78
2022/03/05 04:41:51;;;;;;;0.60;0.60;;;20.60;35.00;;;;;;5115352;28;20082;-78
2022/03/05 04:44:16;;;;;;;0.50;0.50;;;20.60;35.00;;;;;;5115372;28;20055;-78
2022/03/05 04:46:42;;;;;;;0.75;0.63;;;20.60;35.00;;;;;;5115656;28;20048;-78
2022/03/05 04:49:08;;;;;;;0.60;0.50;;;20.60;35.00;;;;;;5115078;28;20051;-78
2022/03/05 04:51:34;;;;;;;0.60;0.60;;;20.60;34.90;;;;;;5115228;28;20406;-78
2022/03/05 04:54:00;;;;;;;0.65;0.63;;;20.60;34.90;;;;;;5112201;28;20063;-78
2022/03/05 04:56:25;;;;;;;0.70;0.70;;;20.60;34.90;;;;;;5115246;28;20079;-78
2022/03/05 04:58:51;;;;;;;0.65;0.65;;;20.60;34.90;;;;;;5114814;28;20054;-78
2022/03/05 05:01:18;;;;;;;0.60;0.60;;;20.60;34.90;;;;;;5095023;28;20052;-78
2022/03/05 05:03:44;;;;;;;0.50;0.50;;;20.60;34.90;;;;;;5115137;28;20100;-78
2022/03/05 05:06:11;;;;;;;1.25;0.80;;;20.60;34.90;;;;;;5115054;28;20052;-78
2022/03/05 05:08:37;;;;;;;0.60;0.60;;;20.60;34.90;;;;;;5095547;28;20050;-78
2022/03/05 05:11:04;;;;;;;0.57;0.57;;;20.60;34.90;;;;;;5115380;28;20048;-78
2022/03/05 05:13:30;;;;;;;0.60;0.60;;;20.60;34.90;;;;;;5113946;28;20105;-78
2022/03/05 05:15:57;;;;;;;0.60;0.60;;;20.60;34.90;;;;;;5115183;28;20043;-78
2022/03/05 05:18:23;;;;;;;1.15;0.80;;;20.60;34.90;;;;;;5114962;28;20047;-78
2022/03/05 05:20:49;;;;;;;0.52;0.52;;;20.60;34.90;;;;;;5114942;28;20142;-78
2022/03/05 05:23:15;;;;;;;0.70;0.70;;;20.60;34.90;;;;;;5113539;28;20083;-78
2022/03/05 05:25:40;;;;;;;0.50;0.50;;;20.60;34.90;;;;;;5114878;28;20497;-78
2022/03/05 05:28:06;;;;;;;0.98;0.70;;;20.60;34.90;;;;;;5114652;28;20051;-78
2022/03/05 05:30:33;;;;;;;0.80;0.80;;;20.60;34.90;;;;;;5114712;28;20077;-78
2022/03/05 05:32:58;;;;;;;0.50;0.50;;;20.60;34.90;;;;;;5114636;28;20073;-78
2022/03/05 05:35:24;;;;;;;0.45;0.45;;;20.60;34.90;;;;;;5112037;28;20052;-78
2022/03/05 05:37:49;;;;;;;0.57;0.57;;;20.60;34.90;;;;;;5114480;28;20142;-78
2022/03/05 05:40:15;;;;;;;0.60;0.60;;;20.60;34.80;;;;;;5114529;28;20058;-78
2022/03/05 05:42:42;;;;;;;0.70;0.70;;;20.60;34.80;;;;;;5095065;28;20055;-78
2022/03/05 05:45:09;;;;;;;0.60;0.55;;;20.60;34.90;;;;;;5114851;28;20059;-78
2022/03/05 05:47:35;;;;;;;0.60;0.60;;;20.60;34.90;;;;;;5114268;28;20138;-77
2022/03/05 05:50:00;;;;;;;1.05;0.52;;;20.60;34.90;;;;;;5114372;28;20081;-78
2022/03/05 05:52:26;;;;;;;0.60;0.60;;;20.60;34.90;;;;;;5114708;28;20051;-78
2022/03/05 05:54:51;;;;;;;0.60;0.60;;;20.60;34.90;;;;;;5114410;28;20407;-78
2022/03/05 05:57:17;;;;;;;1.02;0.70;;;20.60;34.90;;;;;;5114278;28;20553;-78
2022/03/05 05:59:43;;;;;;;0.80;0.60;;;20.60;34.90;;;;;;5114113;28;20453;-78
2022/03/05 06:02:08;;;;;;;0.50;0.50;;;20.60;34.90;;;;;;5114300;28;20403;-78
2022/03/05 06:04:34;;;;;;;0.50;0.50;;;20.60;34.80;;;;;;5095782;28;20096;-78
2022/03/05 06:07:00;;;;;;;0.63;0.60;;;20.60;34.90;;;;;;5114451;28;20054;-78
2022/03/05 06:09:25;;;;;;;0.55;0.55;;;20.60;34.90;;;;;;5112808;28;20119;-78
2022/03/05 06:11:51;;;;;;;0.50;0.50;;;20.60;34.80;;;;;;5113837;28;20138;-78
2022/03/05 06:14:17;;;;;;;0.60;0.60;;;20.60;34.80;;;;;;5114190;28;20556;-78
2022/03/05 06:16:42;;;;;;;0.70;0.70;;;20.70;34.90;;;;;;5113960;28;20083;-77
2022/03/05 06:19:08;;;;;;;0.45;0.45;;;20.70;34.90;;;;;;5113675;28;20081;-77
2022/03/05 06:21:34;;;;;;;0.73;0.50;;;20.70;34.80;;;;;;5094342;28;20056;-78
2022/03/05 06:24:00;;;;;;;0.60;0.60;;;20.70;34.80;;;;;;5113815;28;20134;-78
2022/03/05 06:26:28;;;;;;;0.60;0.50;;;20.70;34.70;;;;;;5095440;28;20146;-78
2022/03/05 06:28:54;;;;;;;0.60;0.52;;;20.80;34.70;;;;;;5113749;28;20130;-77
2022/03/05 06:31:20;;;;;;;0.50;0.50;;;20.90;34.60;;;;;;5113757;28;20104;-78
2022/03/05 06:33:45;;;;;;;0.50;0.50;;;20.90;34.50;;;;;;5113774;28;20131;-78
2022/03/05 06:36:11;;;;;;;0.50;0.50;;;21.00;34.40;;;;;;5113673;28;20051;-78
2022/03/05 06:38:36;;;;;;;0.65;0.65;;;21.00;34.20;;;;;;5113500;28;20145;-78
2022/03/05 06:41:02;;;;;;;0.90;0.77;;;21.10;34.20;;;;;;5112366;28;20062;-77
2022/03/05 06:43:27;;;;;;;0.70;0.70;;;21.20;34.20;;;;;;5095273;28;20495;-78
2022/03/05 06:45:53;;;;;;;0.95;0.63;;;21.20;34.00;;;;;;5113872;28;20376;-78
2022/03/05 06:48:18;;;;;;;0.70;0.70;;;21.30;34.10;;;;;;5113771;28;20043;-78
2022/03/05 06:50:44;;;;;;;0.60;0.60;;;21.30;33.90;;;;;;5113456;28;20048;-78
2022/03/05 06:53:10;;;;;;;0.52;0.50;;;21.30;33.80;;;;;;5113721;28;20135;-78
2022/03/05 06:55:35;;;;;;;0.60;0.60;;;21.40;33.80;;;;;;5112683;28;20134;-78
2022/03/05 06:58:01;;;;;;;0.50;0.50;;;21.50;33.70;;;;;;5113399;28;20100;-78
2022/03/05 07:00:26;;;;;;;0.50;0.50;;;21.50;33.60;;;;;;5113293;28;20047;-77
2022/03/05 07:02:52;;;;;;;0.60;0.60;;;21.60;33.50;;;;;;5113409;28;20051;-78
2022/03/05 07:05:17;;;;;;;0.75;0.50;;;21.60;33.40;;;;;;5113211;28;20058;-78
2022/03/05 07:07:43;;;;;;;0.70;0.65;;;21.70;33.40;;;;;;5113162;28;21076;-78
2022/03/05 07:10:09;;;;;;;0.57;0.57;;;21.70;33.40;;;;;;5113516;28;20055;-78
2022/03/05 07:12:35;;;;;;;0.52;0.52;;;21.70;33.30;;;;;;5113053;28;20048;-78
2022/03/05 07:15:01;;;;;;;0.63;0.63;;;21.80;33.30;;;;;;5113100;28;20100;-78
2022/03/05 07:17:27;;;;;;;0.52;0.52;;;21.80;33.20;;;;;;5113067;28;20059;-77
2022/03/05 07:19:56;;;;;;;0.60;0.60;;;21.90;33.20;;;;;;5112976;28;20440;-78
2022/03/05 07:22:23;;;;;;;0.60;0.60;;;21.90;33.10;;;;;;5113377;28;20052;-78
2022/03/05 07:24:49;;;;;;;0.60;0.57;;;21.90;33.10;;;;;;5094741;28;20130;-77
2022/03/05 07:27:15;;;;;;;0.65;0.65;;;21.90;33.10;;;;;;5113069;28;20090;-77
2022/03/05 07:29:42;;;;;;;0.57;0.57;;;21.90;33.00;;;;;;5113014;28;20071;-78
2022/03/05 07:32:08;;;;;;;1.33;0.68;;;21.90;33.00;;;;;;5113012;28;20056;-78
2022/03/05 07:34:35;;;;;;;0.50;0.50;;;22.00;33.00;;;;;;5112787;28;20143;-78
2022/03/05 07:37:01;;;;;;;0.60;0.52;;;22.00;33.00;;;;;;5094478;28;20051;-78
2022/03/05 07:39:26;;;;;;;1.13;0.70;;;22.00;32.90;;;;;;5112571;28;20047;-78
2022/03/05 07:41:52;;;;;;;0.65;0.65;;;22.00;32.90;;;;;;5112661;28;20172;-77
2022/03/05 07:44:19;;;;;;;0.60;0.60;;;22.10;32.90;;;;;;5112464;28;20055;-77
2022/03/05 07:46:44;;;;;;;0.85;0.60;;;22.00;32.80;;;;;;5112599;28;20059;-77
2022/03/05 07:49:10;;;;;;;0.98;0.68;;;22.10;32.80;;;;;;5113096;28;20124;-78
2022/03/05 07:51:36;;;;;;;0.43;0.43;;;22.10;32.80;;;;;;5112580;28;20145;-77
2022/03/05 07:54:02;;;;;;;0.60;0.60;;;22.10;32.80;;;;;;5093217;28;20083;-77
2022/03/05 07:56:28;;;;;;;0.60;0.52;;;22.10;32.80;;;;;;5112566;28;20473;-78
2022/03/05 07:58:54;;;;;;;0.50;0.50;;;22.10;32.80;;;;;;5112593;28;20139;-77
2022/03/05 08:01:19;;;;;;;0.50;0.50;;;22.10;32.80;;;;;;5094289;28;20499;-77
2022/03/05 08:03:45;;;;;;;0.57;0.50;;;22.00;32.80;;;;;;5094306;28;20099;-77
2022/03/05 08:06:10;;;;;;;0.77;0.70;;;22.00;32.80;;;;;;5112830;28;20056;-77
2022/03/05 08:08:36;;;;;;;0.60;0.60;;;22.00;32.80;;;;;;5096616;28;20056;-77
2022/03/05 08:11:02;;;;;;;1.08;0.70;;;22.00;32.90;;;;;;5097800;28;20044;-77
2022/03/05 08:13:29;;;;;;;0.70;0.70;;;22.00;32.90;;;;;;5116029;28;20055;-77
2022/03/05 08:15:55;;;;;;;0.40;0.40;;;21.90;32.90;;;;;;5115806;28;20083;-77
2022/03/05 08:18:22;;;;;;;0.60;0.60;;;21.90;33.00;;;;;;5116043;28;20498;-78
2022/03/05 08:20:48;;;;;;;0.65;0.60;;;21.90;33.10;;;;;;5115710;28;20138;-77
2022/03/05 08:23:13;;;;;;;0.57;0.57;;;21.80;33.10;;;;;;5115825;28;20146;-77
2022/03/05 08:25:39;;;;;;;1.15;0.63;;;21.80;33.20;;;;;;5115751;28;20104;-78
2022/03/05 08:28:05;;;;;;;0.73;0.73;;;21.80;33.20;;;;;;5097350;28;20479;-78
2022/03/05 08:30:30;;;;;;;0.55;0.55;;;21.70;33.30;;;;;;5114251;28;20100;-77
2022/03/05 08:32:56;;;;;;;0.98;0.80;;;21.70;33.30;;;;;;5115750;28;20048;-78
2022/03/05 08:35:22;;;;;;;0.90;0.70;;;21.70;33.40;;;;;;5115989;28;20500;-77
2022/03/05 08:37:48;;;;;;;0.50;0.47;;;21.60;33.40;;;;;;5115743;28;20048;-78
2022/03/05 08:40:15;;;;;;;0.93;0.60;;;21.60;33.40;;;;;;5113973;28;20081;-78
2022/03/05 08:42:41;;;;;;;0.80;0.77;;;21.60;33.40;;;;;;5115869;28;20051;-78
2022/03/05 08:45:08;;;;;;;0.85;0.70;;;21.50;33.50;;;;;;5115558;28;20040;-78
2022/03/05 08:47:34;;;;;;;0.50;0.50;;;21.50;33.50;;;;;;5115433;28;20100;-77
2022/03/05 08:49:59;;;;;;;0.60;0.60;;;21.40;33.60;;;;;;5096884;28;20051;-77
2022/03/05 08:52:25;;;;;;;0.55;0.55;;;21.40;33.60;;;;;;5115283;28;20053;-77
2022/03/05 08:54:51;;;;;;;0.50;0.50;;;21.40;33.70;;;;;;5097330;28;20050;-78
2022/03/05 08:57:16;;;;;;;0.40;0.40;;;21.40;33.70;;;;;;5115475;28;20101;-77
2022/03/05 08:59:42;;;;;;;0.60;0.60;;;21.40;33.70;;;;;;5115091;28;20503;-77
2022/03/05 09:02:08;;;;;;;0.40;0.40;;;21.30;33.80;;;;;;5115625;28;20047;-77
2022/03/05 09:04:34;;;;;;;0.47;0.47;;;21.30;33.80;;;;;;5115482;28;20051;-78
2022/03/05 09:07:01;;;;;;;0.70;0.70;;;21.30;33.80;;;;;;5115132;28;20135;-77
2022/03/05 09:09:27;;;;;;;0.65;0.65;;;21.30;33.90;;;;;;5114802;28;20495;-78
2022/03/05 09:11:53;;;;;;;0.50;0.50;;;21.30;33.90;;;;;;5115545;28;20057;-77
2022/03/05 09:14:19;;;;;;;0.60;0.60;;;21.20;33.90;;;;;;5115095;28;20048;-78
2022/03/05 09:16:45;;;;;;;0.43;0.43;;;21.20;33.90;;;;;;5114733;28;20052;-78
2022/03/05 09:19:10;;;;;;;1.05;0.60;;;21.20;34.00;;;;;;5114352;28;20109;-77
2022/03/05 09:21:36;;;;;;;0.63;0.63;;;21.20;34.00;;;;;;5095989;28;20043;-77
2022/03/05 09:24:04;;;;;;;0.60;0.60;;;21.20;34.00;;;;;;5114661;28;20054;-78
2022/03/05 09:26:29;;;;;;;0.50;0.50;;;21.20;34.00;;;;;;5114746;28;20495;-78
2022/03/05 09:28:55;;;;;;;0.65;0.60;;;21.10;34.00;;;;;;5114764;28;20044;-78
2022/03/05 09:31:20;;;;;;;0.70;0.70;;;21.10;34.10;;;;;;5114742;28;20066;-77
2022/03/05 09:33:46;;;;;;;0.60;0.57;;;21.10;34.10;;;;;;5114744;28;20059;-77
2022/03/05 09:36:12;;;;;;;0.52;0.52;;;21.10;34.10;;;;;;5096493;28;20483;-78
2022/03/05 09:38:38;;;;;;;0.65;0.65;;;21.10;34.10;;;;;;5096211;28;20051;-77
2022/03/05 09:41:05;;;;;;;1.48;0.50;;;21.10;34.10;;;;;;5114636;28;20047;-78
2022/03/05 09:43:32;;;;;;;0.60;0.60;;;21.10;34.10;;;;;;5114633;28;20082;-77
2022/03/05 09:45:59;;;;;;;0.60;0.60;;;21.10;34.10;;;;;;5114411;28;20066;-78
2022/03/05 09:48:27;;;;;;;0.60;0.50;;;21.10;34.70;;;;;;5096230;28;20065;-77
2022/03/05 09:50:52;;;;;;;0.60;0.60;;;21.10;34.20;;;;;;5096486;28;20089;-78
2022/03/05 09:53:20;;;;;;;0.82;0.60;;;21.00;34.10;;;;;;5114453;28;20135;-78
2022/03/05 09:55:48;;;;;;;0.57;0.57;;;21.10;34.20;;;;;;5111087;28;20052;-77
2022/03/05 09:58:15;;;;;;;1.30;0.60;;;21.10;34.20;;;;;;5114268;28;20040;-78
2022/03/05 10:00:41;;;;;;;1.15;0.63;;;21.00;34.10;;;;;;5114154;28;20055;-78
2022/03/05 10:03:07;;;;;;;0.63;0.63;;;21.00;34.20;;;;;;5114163;28;20047;-78
2022/03/05 10:05:34;;;;;;;0.50;0.50;;;21.00;34.20;;;;;;5113897;28;20495;-78
2022/03/05 10:08:15;;;;;;;0.50;0.50;;;21.00;34.10;;;;;;5095808;28;20055;-77
2022/03/05 10:10:51;;;;;;;0.60;0.60;;;21.10;34.10;;;;;;5114401;28;20059;-77
2022/03/05 10:13:24;;;;;;;0.60;0.60;;;21.10;34.10;;;;;;5114218;28;20406;-77
2022/03/05 10:15:52;;;;;;;0.85;0.60;;;21.10;34.10;;;;;;5113907;28;20407;-78
2022/03/05 10:18:25;;;;;;;0.60;0.60;;;21.10;34.10;;;;;;5113968;28;20057;-78
2022/03/05 10:20:52;;;;;;;0.60;0.60;;;21.10;34.00;;;;;;5114108;28;20138;-78
2022/03/05 10:23:19;;;;;;;0.80;0.80;;;21.20;34.10;;;;;;5113837;28;20039;-78
2022/03/05 10:25:50;;;;;;;1.00;0.65;;;21.20;34.00;;;;;;5113932;28;20073;-78
2022/03/05 10:28:24;;;;;;;0.80;0.65;;;21.20;34.00;;;;;;5113772;28;20158;-77
2022/03/05 10:30:54;;;;;;;0.82;0.60;;;21.20;34.00;;;;;;5113488;28;20055;-77
2022/03/05 10:33:37;;;;;;;0.60;0.60;;;21.20;34.00;;;;;;5113839;28;20100;-77
2022/03/05 10:36:19;;;;;;;0.68;0.60;;;21.20;33.90;;;;;;5095567;28;20052;-78
2022/03/05 10:38:46;;;;;;;;;;;21.20;33.90;;;;;;5114080;28;20047;-78
2022/03/05 10:41:14;;;;;;;0.60;0.60;;;21.20;33.90;;;;;;5113964;28;19966;-78
2022/03/05 10:43:40;;;;;;;0.60;0.60;;;21.20;33.90;;;;;;5095315;28;20143;-77
2022/03/05 10:46:06;;;;;;;0.50;0.50;;;21.20;33.90;;;;;;5113596;28;20067;-78
2022/03/05 10:48:33;;;;;;;0.60;0.60;;;21.30;34.50;;;;;;5113438;28;20055;-78
2022/03/05 10:51:14;;;;;;;1.05;0.70;;;21.30;33.90;;;;;;5113780;28;20075;-78
2022/03/05 10:53:41;;;;;;;;;;;21.30;33.90;;;;;;5113934;28;20485;-78
2022/03/05 10:56:30;;;;;;;0.70;0.60;;;21.30;33.90;;;;;;5113346;28;19923;-78
2022/03/05 10:58:58;;;;;;;0.50;0.50;;;21.20;33.90;;;;;;5094767;28;20399;-78
2022/03/05 11:01:24;;;;;;;0.55;0.55;;;21.30;33.90;;;;;;5094983;28;20052;-78
2022/03/05 11:03:52;;;;;;;0.60;0.60;;;21.30;33.90;;;;;;5113336;28;20498;-78
2022/03/05 11:06:21;;;;;;;0.60;0.60;;;21.20;33.90;;;;;;5112237;28;20052;-78
2022/03/05 11:08:48;;;;;;;0.52;0.52;;;21.30;33.90;;;;;;5113179;28;20058;-78
2022/03/05 11:11:18;;;;;;;0.60;0.60;;;21.20;33.90;;;;;;5113132;28;20066;-78
2022/03/05 11:13:44;;;;;;;1.17;0.53;;;21.30;33.90;;;;;;5113230;28;20054;-78
2022/03/05 11:16:12;;;;;;;0.57;0.57;;;21.20;33.90;;;;;;5095017;28;20281;-78
2022/03/05 11:18:41;;;;;;;0.50;0.50;;;21.20;33.80;;;;;;5112834;28;20050;-78
2022/03/05 11:21:09;;;;;;;0.65;0.60;;;21.30;33.90;;;;;;5094395;28;20052;-78
2022/03/05 11:23:36;;;;;;;0.80;0.60;;;21.20;33.80;;;;;;5111698;28;20059;-79
2022/03/05 11:26:07;;;;;;;0.85;0.60;;;21.20;33.80;;;;;;5111660;28;20055;-78
2022/03/05 11:28:37;;;;;;;0.60;0.60;;;21.20;33.80;;;;;;5113189;28;20058;-79
2022/03/05 11:31:23;;;;;;;0.60;0.60;;;21.20;33.80;;;;;;5112922;28;20502;-78
2022/03/05 11:33:50;;;;;;;0.60;0.60;;;21.20;33.90;;;;;;5076622;28;20348;-79
2022/03/05 11:36:35;;;;;;;0.85;0.70;;;21.20;33.90;;;;;;5077706;28;20139;-79
2022/03/05 11:39:09;;;;;;;0.50;0.50;;;21.20;33.90;;;;;;5112608;28;20055;-79
2022/03/05 11:41:52;;;;;;;0.70;0.70;;;21.20;33.90;;;;;;5095909;28;20055;-79
2022/03/05 11:44:19;;;;;;;0.50;0.50;;;21.20;33.90;;;;;;5116364;28;20047;-79
2022/03/05 11:46:45;;;;;;;0.60;0.60;;;21.20;33.90;;;;;;5116247;28;20052;-79
2022/03/05 11:49:12;;;;;;;0.52;0.50;;;21.20;33.90;;;;;;5116437;28;20063;-79
2022/03/05 11:51:56;;;;;;;0.52;0.50;;;21.20;33.90;;;;;;5116195;28;20044;-78
2022/03/05 11:54:22;;;;;;;0.98;0.60;;;21.20;34.00;;;;;;5097983;28;20055;-79
2022/03/05 11:57:08;;;;;;;0.60;0.60;;;21.10;34.00;;;;;;5096114;28;20132;-79
2022/03/05 11:59:37;;;;;;;0.90;0.60;;;21.20;34.00;;;;;;5115901;28;20071;-79
2022/03/05 12:02:04;;;;;;;0.52;0.50;;;21.10;34.00;;;;;;5116262;28;20048;-79
2022/03/05 12:04:31;;;;;;;0.65;0.65;;;21.10;34.00;;;;;;5116519;28;20097;-79
2022/03/05 12:07:10;;;;;;;0.77;0.77;;;21.10;34.10;;;;;;5116176;28;20051;-79
2022/03/05 12:09:40;;;;;;;0.60;0.60;;;21.10;34.10;;;;;;5115845;28;20055;-78
2022/03/05 12:12:08;;;;;;;0.65;0.65;;;21.00;34.10;;;;;;5097969;28;20507;-79
2022/03/05 12:15:06;;;;;;;0.70;0.70;;;21.00;34.10;;;;;;5080679;28;20075;-79
2022/03/05 12:17:41;;;;;;;0.60;0.60;;;21.00;34.10;;;;;;5115708;28;20052;-78
2022/03/05 12:20:10;;;;;;;0.75;0.68;;;21.00;34.20;;;;;;5115802;28;20105;-79
2022/03/05 12:22:35;;;;;;;1.02;0.70;;;21.00;34.20;;;;;;5115883;28;20498;-79
2022/03/05 12:25:01;;;;;;;0.60;0.60;;;21.00;34.20;;;;;;5115835;28;20066;-79
2022/03/05 12:27:30;;;;;;;0.60;0.60;;;21.00;34.30;;;;;;5115719;28;20471;-79
2022/03/05 12:29:57;;;;;;;0.60;0.60;;;21.00;34.30;;;;;;5114415;28;20044;-79
2022/03/05 12:32:30;;;;;;;0.70;0.70;;;20.90;34.30;;;;;;5115760;28;20090;-77
2022/03/05 12:35:05;;;;;;;0.52;0.52;;;20.90;34.30;;;;;;5115682;28;20124;-76
2022/03/05 12:37:32;;;;;;;0.70;0.57;;;20.90;34.30;;;;;;5097161;28;20092;-77
2022/03/05 12:39:58;;;;;;;0.88;0.60;;;20.90;34.30;;;;;;5115452;28;20138;-77
2022/03/05 12:42:26;;;;;;;0.60;0.60;;;20.90;34.40;;;;;;5097247;28;20140;-78
2022/03/05 12:44:55;;;;;;;0.70;0.70;;;20.90;34.40;;;;;;5115833;28;20047;-78
2022/03/05 12:47:20;;;;;;;0.82;0.60;;;20.90;34.40;;;;;;5115409;28;20052;-78
2022/03/05 12:49:46;;;;;;;0.88;0.60;;;20.90;34.40;;;;;;5115747;28;20132;-78